sensor_id;sensor_type;location;lat;lon;timestamp;P1;durP1;ratioP1;P2;durP2;ratioP2
65667;SDS011;52369;52.542;13.232;2023-05-15T00:01:16;22.92;;;12.95;;
65667;SDS011;52369;52.542;13.232;2023-05-15T00:03:42;20.83;;;11.95;;
65667;SDS011;52369;52.542;13.232;2023-05-15T00:06:08;16.90;;;11.77;;
65667;SDS011;52369;52.542;13.232;2023-05-15T00:08:34;17.23;;;11.00;;
65667;SDS011;52369;52.542;13.232;2023-05-15T00:11:00;20.98;;;13.40;;
65667;SDS011;52369;52.542;13.232;2023-05-15T00:13:26;18.60;;;11.88;;
65667;SDS011;52369;52.542;13.232;2023-05-15T00:15:52;28.85;;;15.50;;
65667;SDS011;52369;52.542;13.232;2023-05-15T00:18:18;24.60;;;15.02;;
65667;SDS011;52369;52.542;13.232;2023-05-15T00:20:44;17.52;;;11.90;;
65667;SDS011;52369;52.542;13.232;2023-05-15T00:23:10;14.68;;;10.80;;
65667;SDS011;52369;52.542;13.232;2023-05-15T00:25:36;21.02;;;12.73;;
65667;SDS011;52369;52.542;13.232;2023-05-15T00:28:02;23.55;;;14.05;;
65667;SDS011;52369;52.542;13.232;2023-05-15T00:30:28;57.25;;;25.63;;
65667;SDS011;52369;52.542;13.232;2023-05-15T00:32:54;16.45;;;11.93;;
65667;SDS011;52369;52.542;13.232;2023-05-15T00:35:21;81.88;;;35.85;;
65667;SDS011;52369;52.542;13.232;2023-05-15T00:37:47;18.42;;;12.75;;
65667;SDS011;52369;52.542;13.232;2023-05-15T00:40:16;27.42;;;16.45;;
65667;SDS011;52369;52.542;13.232;2023-05-15T00:42:43;18.77;;;12.13;;
65667;SDS011;52369;52.542;13.232;2023-05-15T00:45:10;17.23;;;11.93;;
65667;SDS011;52369;52.542;13.232;2023-05-15T00:47:37;37.45;;;19.00;;
65667;SDS011;52369;52.542;13.232;2023-05-15T00:50:05;26.15;;;15.02;;
65667;SDS011;52369;52.542;13.232;2023-05-15T00:52:32;20.40;;;12.90;;
65667;SDS011;52369;52.542;13.232;2023-05-15T00:54:58;15.00;;;11.60;;
65667;SDS011;52369;52.542;13.232;2023-05-15T00:57:24;23.70;;;14.05;;
65667;SDS011;52369;52.542;13.232;2023-05-15T00:59:52;22.38;;;13.80;;
65667;SDS011;52369;52.542;13.232;2023-05-15T01:02:18;19.65;;;12.88;;
65667;SDS011;52369;52.542;13.232;2023-05-15T01:04:45;18.65;;;12.57;;
65667;SDS011;52369;52.542;13.232;2023-05-15T01:07:11;19.42;;;14.68;;
65667;SDS011;52369;52.542;13.232;2023-05-15T01:09:37;19.63;;;13.07;;
65667;SDS011;52369;52.542;13.232;2023-05-15T01:12:06;19.15;;;12.43;;
65667;SDS011;52369;52.542;13.232;2023-05-15T01:14:34;16.00;;;11.93;;
65667;SDS011;52369;52.542;13.232;2023-05-15T01:17:00;16.38;;;11.77;;
65667;SDS011;52369;52.542;13.232;2023-05-15T01:19:26;17.45;;;11.88;;
65667;SDS011;52369;52.542;13.232;2023-05-15T01:24:54;17.88;;;13.00;;
65667;SDS011;52369;52.542;13.232;2023-05-15T01:30:12;31.13;;;17.88;;
65667;SDS011;52369;52.542;13.232;2023-05-15T01:37:53;36.92;;;20.30;;
65667;SDS011;52369;52.542;13.232;2023-05-15T01:40:19;59.53;;;27.63;;
65667;SDS011;52369;52.542;13.232;2023-05-15T01:42:52;20.90;;;13.63;;
65667;SDS011;52369;52.542;13.232;2023-05-15T01:45:20;18.02;;;12.32;;
65667;SDS011;52369;52.542;13.232;2023-05-15T01:47:46;25.38;;;15.32;;
65667;SDS011;52369;52.542;13.232;2023-05-15T01:50:14;42.10;;;22.98;;
65667;SDS011;52369;52.542;13.232;2023-05-15T01:52:47;30.85;;;18.23;;
65667;SDS011;52369;52.542;13.232;2023-05-15T01:55:13;24.75;;;15.25;;
65667;SDS011;52369;52.542;13.232;2023-05-15T01:57:40;32.42;;;19.00;;
65667;SDS011;52369;52.542;13.232;2023-05-15T02:00:07;19.15;;;13.63;;
65667;SDS011;52369;52.542;13.232;2023-05-15T02:02:35;32.10;;;18.80;;
65667;SDS011;52369;52.542;13.232;2023-05-15T02:05:01;18.38;;;14.13;;
65667;SDS011;52369;52.542;13.232;2023-05-15T02:07:28;39.10;;;20.42;;
65667;SDS011;52369;52.542;13.232;2023-05-15T02:09:54;21.33;;;14.70;;
65667;SDS011;52369;52.542;13.232;2023-05-15T02:12:20;17.90;;;13.48;;
65667;SDS011;52369;52.542;13.232;2023-05-15T02:14:48;18.83;;;13.15;;
65667;SDS011;52369;52.542;13.232;2023-05-15T02:17:14;19.45;;;14.35;;
65667;SDS011;52369;52.542;13.232;2023-05-15T02:19:40;20.30;;;14.50;;
65667;SDS011;52369;52.542;13.232;2023-05-15T02:22:06;18.80;;;14.27;;
65667;SDS011;52369;52.542;13.232;2023-05-15T02:24:32;18.50;;;13.68;;
65667;SDS011;52369;52.542;13.232;2023-05-15T02:26:59;20.88;;;13.38;;
65667;SDS011;52369;52.542;13.232;2023-05-15T02:29:35;18.20;;;13.00;;
65667;SDS011;52369;52.542;13.232;2023-05-15T02:34:36;20.52;;;14.48;;
65667;SDS011;52369;52.542;13.232;2023-05-15T02:37:04;19.35;;;13.15;;
65667;SDS011;52369;52.542;13.232;2023-05-15T02:39:32;17.70;;;13.63;;
65667;SDS011;52369;52.542;13.232;2023-05-15T02:41:59;19.13;;;12.48;;
65667;SDS011;52369;52.542;13.232;2023-05-15T02:44:26;22.40;;;14.13;;
65667;SDS011;52369;52.542;13.232;2023-05-15T02:46:52;18.85;;;13.70;;
65667;SDS011;52369;52.542;13.232;2023-05-15T02:49:19;16.60;;;13.55;;
65667;SDS011;52369;52.542;13.232;2023-05-15T02:51:47;18.85;;;13.98;;
65667;SDS011;52369;52.542;13.232;2023-05-15T02:54:13;20.58;;;14.20;;
65667;SDS011;52369;52.542;13.232;2023-05-15T02:56:39;23.55;;;13.93;;
65667;SDS011;52369;52.542;13.232;2023-05-15T02:59:05;17.83;;;13.30;;
65667;SDS011;52369;52.542;13.232;2023-05-15T03:01:32;16.88;;;13.32;;
65667;SDS011;52369;52.542;13.232;2023-05-15T03:03:58;16.77;;;13.38;;
65667;SDS011;52369;52.542;13.232;2023-05-15T03:06:24;18.90;;;13.00;;
65667;SDS011;52369;52.542;13.232;2023-05-15T03:08:50;17.48;;;13.00;;
65667;SDS011;52369;52.542;13.232;2023-05-15T03:11:16;22.13;;;13.90;;
65667;SDS011;52369;52.542;13.232;2023-05-15T03:13:43;17.15;;;13.00;;
65667;SDS011;52369;52.542;13.232;2023-05-15T03:16:09;16.88;;;12.80;;
65667;SDS011;52369;52.542;13.232;2023-05-15T03:18:35;19.88;;;12.75;;
65667;SDS011;52369;52.542;13.232;2023-05-15T03:21:01;16.55;;;12.05;;
65667;SDS011;52369;52.542;13.232;2023-05-15T03:23:27;16.73;;;12.57;;
65667;SDS011;52369;52.542;13.232;2023-05-15T03:25:54;18.38;;;13.13;;
65667;SDS011;52369;52.542;13.232;2023-05-15T03:28:20;19.13;;;14.02;;
65667;SDS011;52369;52.542;13.232;2023-05-15T03:30:46;15.32;;;12.93;;
65667;SDS011;52369;52.542;13.232;2023-05-15T03:33:12;18.92;;;12.98;;
65667;SDS011;52369;52.542;13.232;2023-05-15T03:35:38;17.40;;;13.25;;
65667;SDS011;52369;52.542;13.232;2023-05-15T03:38:04;19.70;;;13.27;;
65667;SDS011;52369;52.542;13.232;2023-05-15T03:40:30;17.38;;;13.20;;
65667;SDS011;52369;52.542;13.232;2023-05-15T03:42:56;19.40;;;13.00;;
65667;SDS011;52369;52.542;13.232;2023-05-15T03:45:22;17.40;;;12.40;;
65667;SDS011;52369;52.542;13.232;2023-05-15T03:47:48;16.15;;;12.38;;
65667;SDS011;52369;52.542;13.232;2023-05-15T03:50:14;17.95;;;13.00;;
65667;SDS011;52369;52.542;13.232;2023-05-15T03:52:41;18.17;;;13.15;;
65667;SDS011;52369;52.542;13.232;2023-05-15T03:55:07;15.70;;;12.32;;
65667;SDS011;52369;52.542;13.232;2023-05-15T03:57:33;17.70;;;12.52;;
65667;SDS011;52369;52.542;13.232;2023-05-15T03:59:59;21.08;;;13.32;;
65667;SDS011;52369;52.542;13.232;2023-05-15T04:02:28;19.15;;;13.15;;
65667;SDS011;52369;52.542;13.232;2023-05-15T04:04:54;17.92;;;12.48;;
65667;SDS011;52369;52.542;13.232;2023-05-15T04:07:20;19.65;;;13.32;;
65667;SDS011;52369;52.542;13.232;2023-05-15T04:09:46;22.45;;;14.63;;
65667;SDS011;52369;52.542;13.232;2023-05-15T04:12:12;16.95;;;12.55;;
65667;SDS011;52369;52.542;13.232;2023-05-15T04:14:38;17.13;;;12.40;;
65667;SDS011;52369;52.542;13.232;2023-05-15T04:17:04;19.05;;;12.90;;
65667;SDS011;52369;52.542;13.232;2023-05-15T04:19:30;16.30;;;12.13;;
65667;SDS011;52369;52.542;13.232;2023-05-15T04:21:56;17.83;;;12.55;;
65667;SDS011;52369;52.542;13.232;2023-05-15T04:24:22;16.77;;;12.18;;
65667;SDS011;52369;52.542;13.232;2023-05-15T04:26:48;17.88;;;12.85;;
65667;SDS011;52369;52.542;13.232;2023-05-15T04:29:14;17.50;;;12.20;;
65667;SDS011;52369;52.542;13.232;2023-05-15T04:31:40;18.98;;;13.25;;
65667;SDS011;52369;52.542;13.232;2023-05-15T04:34:06;18.33;;;12.57;;
65667;SDS011;52369;52.542;13.232;2023-05-15T04:36:32;20.13;;;12.85;;
65667;SDS011;52369;52.542;13.232;2023-05-15T04:38:58;17.55;;;11.95;;
65667;SDS011;52369;52.542;13.232;2023-05-15T04:41:24;19.02;;;12.07;;
65667;SDS011;52369;52.542;13.232;2023-05-15T04:43:51;17.17;;;12.30;;
65667;SDS011;52369;52.542;13.232;2023-05-15T04:46:17;21.13;;;12.00;;
65667;SDS011;52369;52.542;13.232;2023-05-15T04:48:43;16.48;;;11.07;;
65667;SDS011;52369;52.542;13.232;2023-05-15T04:51:09;19.17;;;13.00;;
65667;SDS011;52369;52.542;13.232;2023-05-15T04:53:35;16.20;;;12.57;;
65667;SDS011;52369;52.542;13.232;2023-05-15T04:56:01;16.45;;;12.05;;
65667;SDS011;52369;52.542;13.232;2023-05-15T04:58:27;17.58;;;12.32;;
65667;SDS011;52369;52.542;13.232;2023-05-15T05:00:53;16.48;;;12.70;;
65667;SDS011;52369;52.542;13.232;2023-05-15T05:03:20;16.38;;;12.70;;
65667;SDS011;52369;52.542;13.232;2023-05-15T05:05:46;17.35;;;11.90;;
65667;SDS011;52369;52.542;13.232;2023-05-15T05:08:12;23.25;;;14.63;;
65667;SDS011;52369;52.542;13.232;2023-05-15T05:10:38;18.00;;;11.75;;
65667;SDS011;52369;52.542;13.232;2023-05-15T05:13:04;17.58;;;11.70;;
65667;SDS011;52369;52.542;13.232;2023-05-15T05:15:30;18.23;;;11.85;;
65667;SDS011;52369;52.542;13.232;2023-05-15T05:17:56;15.95;;;11.20;;
65667;SDS011;52369;52.542;13.232;2023-05-15T05:20:22;16.80;;;11.32;;
65667;SDS011;52369;52.542;13.232;2023-05-15T05:22:48;14.30;;;10.75;;
65667;SDS011;52369;52.542;13.232;2023-05-15T05:25:14;16.10;;;10.88;;
65667;SDS011;52369;52.542;13.232;2023-05-15T05:27:40;16.92;;;10.77;;
65667;SDS011;52369;52.542;13.232;2023-05-15T05:30:07;13.13;;;9.60;;
65667;SDS011;52369;52.542;13.232;2023-05-15T05:32:33;17.23;;;11.18;;
65667;SDS011;52369;52.542;13.232;2023-05-15T05:34:59;13.93;;;10.38;;
65667;SDS011;52369;52.542;13.232;2023-05-15T05:37:25;15.48;;;11.68;;
65667;SDS011;52369;52.542;13.232;2023-05-15T05:39:51;15.48;;;10.32;;
65667;SDS011;52369;52.542;13.232;2023-05-15T05:42:18;16.55;;;10.50;;
65667;SDS011;52369;52.542;13.232;2023-05-15T05:44:44;15.88;;;10.43;;
65667;SDS011;52369;52.542;13.232;2023-05-15T05:47:10;17.35;;;11.18;;
65667;SDS011;52369;52.542;13.232;2023-05-15T05:49:36;15.00;;;9.80;;
65667;SDS011;52369;52.542;13.232;2023-05-15T05:52:04;15.27;;;9.68;;
65667;SDS011;52369;52.542;13.232;2023-05-15T05:54:31;14.70;;;9.05;;
65667;SDS011;52369;52.542;13.232;2023-05-15T05:56:57;15.52;;;9.55;;
65667;SDS011;52369;52.542;13.232;2023-05-15T05:59:23;13.52;;;9.70;;
65667;SDS011;52369;52.542;13.232;2023-05-15T06:01:49;13.88;;;9.32;;
65667;SDS011;52369;52.542;13.232;2023-05-15T06:04:15;13.20;;;9.20;;
65667;SDS011;52369;52.542;13.232;2023-05-15T06:06:41;14.10;;;9.60;;
65667;SDS011;52369;52.542;13.232;2023-05-15T06:09:07;15.57;;;9.05;;
65667;SDS011;52369;52.542;13.232;2023-05-15T06:11:33;16.33;;;9.38;;
65667;SDS011;52369;52.542;13.232;2023-05-15T06:13:59;13.98;;;9.10;;
65667;SDS011;52369;52.542;13.232;2023-05-15T06:16:25;13.00;;;9.20;;
65667;SDS011;52369;52.542;13.232;2023-05-15T06:18:51;12.57;;;9.00;;
65667;SDS011;52369;52.542;13.232;2023-05-15T06:21:17;14.73;;;9.30;;
65667;SDS011;52369;52.542;13.232;2023-05-15T06:23:43;19.73;;;14.00;;
65667;SDS011;52369;52.542;13.232;2023-05-15T06:26:09;14.50;;;8.90;;
65667;SDS011;52369;52.542;13.232;2023-05-15T06:28:35;11.25;;;8.07;;
65667;SDS011;52369;52.542;13.232;2023-05-15T06:31:02;13.88;;;7.97;;
65667;SDS011;52369;52.542;13.232;2023-05-15T06:33:28;12.13;;;8.25;;
65667;SDS011;52369;52.542;13.232;2023-05-15T06:35:54;11.85;;;8.65;;
65667;SDS011;52369;52.542;13.232;2023-05-15T06:38:20;13.32;;;9.27;;
65667;SDS011;52369;52.542;13.232;2023-05-15T06:40:46;11.35;;;7.75;;
65667;SDS011;52369;52.542;13.232;2023-05-15T06:43:12;13.23;;;8.52;;
65667;SDS011;52369;52.542;13.232;2023-05-15T06:45:38;12.82;;;8.57;;
65667;SDS011;52369;52.542;13.232;2023-05-15T06:48:04;10.68;;;7.40;;
65667;SDS011;52369;52.542;13.232;2023-05-15T06:50:30;12.15;;;8.00;;
65667;SDS011;52369;52.542;13.232;2023-05-15T06:52:57;14.77;;;8.93;;
65667;SDS011;52369;52.542;13.232;2023-05-15T06:55:23;14.35;;;8.25;;
65667;SDS011;52369;52.542;13.232;2023-05-15T06:57:49;13.15;;;8.57;;
65667;SDS011;52369;52.542;13.232;2023-05-15T07:00:15;12.68;;;7.50;;
65667;SDS011;52369;52.542;13.232;2023-05-15T07:02:41;10.73;;;7.15;;
65667;SDS011;52369;52.542;13.232;2023-05-15T07:05:07;12.00;;;7.70;;
65667;SDS011;52369;52.542;13.232;2023-05-15T07:07:35;10.20;;;6.90;;
65667;SDS011;52369;52.542;13.232;2023-05-15T07:10:01;10.98;;;7.70;;
65667;SDS011;52369;52.542;13.232;2023-05-15T07:12:27;10.68;;;7.22;;
65667;SDS011;52369;52.542;13.232;2023-05-15T07:14:53;13.82;;;7.65;;
65667;SDS011;52369;52.542;13.232;2023-05-15T07:17:19;11.02;;;7.50;;
65667;SDS011;52369;52.542;13.232;2023-05-15T07:19:45;11.38;;;7.43;;
65667;SDS011;52369;52.542;13.232;2023-05-15T07:22:11;11.93;;;7.53;;
65667;SDS011;52369;52.542;13.232;2023-05-15T07:24:37;12.90;;;6.80;;
65667;SDS011;52369;52.542;13.232;2023-05-15T07:27:03;11.25;;;7.18;;
65667;SDS011;52369;52.542;13.232;2023-05-15T07:29:30;10.70;;;6.90;;
65667;SDS011;52369;52.542;13.232;2023-05-15T07:31:56;11.07;;;6.97;;
65667;SDS011;52369;52.542;13.232;2023-05-15T07:34:22;12.70;;;7.50;;
65667;SDS011;52369;52.542;13.232;2023-05-15T07:36:48;11.60;;;6.53;;
65667;SDS011;52369;52.542;13.232;2023-05-15T07:39:14;11.27;;;6.85;;
65667;SDS011;52369;52.542;13.232;2023-05-15T07:41:40;11.55;;;6.15;;
65667;SDS011;52369;52.542;13.232;2023-05-15T07:44:06;11.80;;;6.82;;
65667;SDS011;52369;52.542;13.232;2023-05-15T07:46:32;12.98;;;6.72;;
65667;SDS011;52369;52.542;13.232;2023-05-15T07:48:58;11.93;;;6.60;;
65667;SDS011;52369;52.542;13.232;2023-05-15T07:51:24;11.93;;;6.68;;
65667;SDS011;52369;52.542;13.232;2023-05-15T07:53:50;10.57;;;6.70;;
65667;SDS011;52369;52.542;13.232;2023-05-15T07:56:16;11.05;;;7.45;;
65667;SDS011;52369;52.542;13.232;2023-05-15T07:58:42;12.27;;;6.72;;
65667;SDS011;52369;52.542;13.232;2023-05-15T08:01:08;12.00;;;6.25;;
65667;SDS011;52369;52.542;13.232;2023-05-15T08:03:35;10.68;;;6.65;;
65667;SDS011;52369;52.542;13.232;2023-05-15T08:06:01;11.23;;;7.03;;
65667;SDS011;52369;52.542;13.232;2023-05-15T08:08:27;12.75;;;8.77;;
65667;SDS011;52369;52.542;13.232;2023-05-15T08:10:53;12.43;;;7.45;;
65667;SDS011;52369;52.542;13.232;2023-05-15T08:13:19;13.77;;;7.22;;
65667;SDS011;52369;52.542;13.232;2023-05-15T08:15:45;13.45;;;7.72;;
65667;SDS011;52369;52.542;13.232;2023-05-15T08:18:11;10.18;;;6.95;;
65667;SDS011;52369;52.542;13.232;2023-05-15T08:20:37;11.10;;;7.20;;
65667;SDS011;52369;52.542;13.232;2023-05-15T08:23:03;11.95;;;7.10;;
65667;SDS011;52369;52.542;13.232;2023-05-15T08:25:29;13.15;;;7.47;;
65667;SDS011;52369;52.542;13.232;2023-05-15T08:27:55;12.55;;;7.35;;
65667;SDS011;52369;52.542;13.232;2023-05-15T08:30:21;11.27;;;6.90;;
65667;SDS011;52369;52.542;13.232;2023-05-15T08:32:47;16.38;;;8.60;;
65667;SDS011;52369;52.542;13.232;2023-05-15T08:35:13;13.77;;;8.55;;
65667;SDS011;52369;52.542;13.232;2023-05-15T08:37:39;11.80;;;7.55;;
65667;SDS011;52369;52.542;13.232;2023-05-15T08:40:06;12.43;;;7.20;;
65667;SDS011;52369;52.542;13.232;2023-05-15T08:44:59;12.52;;;6.60;;
65667;SDS011;52369;52.542;13.232;2023-05-15T08:47:28;11.35;;;6.63;;
65667;SDS011;52369;52.542;13.232;2023-05-15T08:52:28;11.05;;;6.90;;
65667;SDS011;52369;52.542;13.232;2023-05-15T08:54:55;9.10;;;6.45;;
65667;SDS011;52369;52.542;13.232;2023-05-15T08:57:21;12.32;;;7.05;;
65667;SDS011;52369;52.542;13.232;2023-05-15T08:59:47;13.00;;;7.40;;
65667;SDS011;52369;52.542;13.232;2023-05-15T09:02:14;12.38;;;7.05;;
65667;SDS011;52369;52.542;13.232;2023-05-15T09:04:40;11.25;;;6.50;;
65667;SDS011;52369;52.542;13.232;2023-05-15T09:07:06;13.25;;;7.18;;
65667;SDS011;52369;52.542;13.232;2023-05-15T09:09:34;12.65;;;7.03;;
65667;SDS011;52369;52.542;13.232;2023-05-15T09:12:01;51.42;;;22.00;;
65667;SDS011;52369;52.542;13.232;2023-05-15T09:14:28;16.60;;;9.65;;
65667;SDS011;52369;52.542;13.232;2023-05-15T09:16:54;11.35;;;7.40;;
65667;SDS011;52369;52.542;13.232;2023-05-15T09:19:20;12.15;;;7.40;;
65667;SDS011;52369;52.542;13.232;2023-05-15T09:21:46;14.65;;;7.72;;
65667;SDS011;52369;52.542;13.232;2023-05-15T09:26:45;12.88;;;8.07;;
65667;SDS011;52369;52.542;13.232;2023-05-15T09:29:14;13.85;;;8.15;;
65667;SDS011;52369;52.542;13.232;2023-05-15T09:31:40;13.38;;;7.78;;
65667;SDS011;52369;52.542;13.232;2023-05-15T09:34:06;11.48;;;7.53;;
65667;SDS011;52369;52.542;13.232;2023-05-15T09:36:34;12.35;;;7.20;;
65667;SDS011;52369;52.542;13.232;2023-05-15T09:39:00;42.40;;;19.65;;
65667;SDS011;52369;52.542;13.232;2023-05-15T09:41:27;13.23;;;8.30;;
65667;SDS011;52369;52.542;13.232;2023-05-15T09:43:56;11.38;;;7.07;;
65667;SDS011;52369;52.542;13.232;2023-05-15T09:46:22;10.70;;;7.57;;
65667;SDS011;52369;52.542;13.232;2023-05-15T09:48:48;12.80;;;7.63;;
65667;SDS011;52369;52.542;13.232;2023-05-15T09:51:15;10.95;;;7.45;;
65667;SDS011;52369;52.542;13.232;2023-05-15T09:53:44;11.38;;;6.93;;
65667;SDS011;52369;52.542;13.232;2023-05-15T09:56:13;14.23;;;9.43;;
65667;SDS011;52369;52.542;13.232;2023-05-15T09:58:50;12.73;;;7.10;;
65667;SDS011;52369;52.542;13.232;2023-05-15T10:01:18;12.52;;;6.60;;
65667;SDS011;52369;52.542;13.232;2023-05-15T10:03:55;10.55;;;6.78;;
65667;SDS011;52369;52.542;13.232;2023-05-15T10:06:21;11.27;;;6.80;;
65667;SDS011;52369;52.542;13.232;2023-05-15T10:08:53;12.35;;;9.10;;
65667;SDS011;52369;52.542;13.232;2023-05-15T10:11:20;18.83;;;10.05;;
65667;SDS011;52369;52.542;13.232;2023-05-15T10:13:46;20.52;;;11.00;;
65667;SDS011;52369;52.542;13.232;2023-05-15T10:16:13;10.13;;;6.80;;
65667;SDS011;52369;52.542;13.232;2023-05-15T10:18:40;10.43;;;7.15;;
65667;SDS011;52369;52.542;13.232;2023-05-15T10:21:09;14.98;;;9.32;;
65667;SDS011;52369;52.542;13.232;2023-05-15T10:23:35;9.85;;;6.15;;
65667;SDS011;52369;52.542;13.232;2023-05-15T10:26:07;10.23;;;6.88;;
65667;SDS011;52369;52.542;13.232;2023-05-15T10:28:34;14.38;;;7.22;;
65667;SDS011;52369;52.542;13.232;2023-05-15T10:31:00;10.90;;;7.35;;
65667;SDS011;52369;52.542;13.232;2023-05-15T10:33:28;12.35;;;7.90;;
65667;SDS011;52369;52.542;13.232;2023-05-15T10:35:55;26.38;;;15.75;;
65667;SDS011;52369;52.542;13.232;2023-05-15T10:38:21;14.40;;;8.68;;
65667;SDS011;52369;52.542;13.232;2023-05-15T10:40:47;33.47;;;18.95;;
65667;SDS011;52369;52.542;13.232;2023-05-15T10:43:14;17.00;;;10.38;;
65667;SDS011;52369;52.542;13.232;2023-05-15T10:45:40;16.17;;;9.98;;
65667;SDS011;52369;52.542;13.232;2023-05-15T10:48:06;19.20;;;11.60;;
65667;SDS011;52369;52.542;13.232;2023-05-15T10:50:36;16.33;;;8.50;;
65667;SDS011;52369;52.542;13.232;2023-05-15T10:53:02;17.42;;;9.93;;
65667;SDS011;52369;52.542;13.232;2023-05-15T10:55:29;11.95;;;7.30;;
65667;SDS011;52369;52.542;13.232;2023-05-15T10:57:55;11.40;;;7.10;;
65667;SDS011;52369;52.542;13.232;2023-05-15T11:02:48;12.35;;;8.07;;
65667;SDS011;52369;52.542;13.232;2023-05-15T11:05:14;14.52;;;9.05;;
65667;SDS011;52369;52.542;13.232;2023-05-15T11:07:41;16.33;;;10.18;;
65667;SDS011;52369;52.542;13.232;2023-05-15T11:12:58;16.60;;;8.23;;
65667;SDS011;52369;52.542;13.232;2023-05-15T11:15:24;15.32;;;10.02;;
65667;SDS011;52369;52.542;13.232;2023-05-15T11:18:03;17.67;;;9.77;;
65667;SDS011;52369;52.542;13.232;2023-05-15T11:20:33;10.68;;;6.78;;
65667;SDS011;52369;52.542;13.232;2023-05-15T11:22:59;14.13;;;8.23;;
65667;SDS011;52369;52.542;13.232;2023-05-15T11:25:31;14.40;;;8.93;;
65667;SDS011;52369;52.542;13.232;2023-05-15T11:27:57;13.88;;;7.53;;
65667;SDS011;52369;52.542;13.232;2023-05-15T11:30:38;10.68;;;6.57;;
65667;SDS011;52369;52.542;13.232;2023-05-15T11:33:11;21.63;;;11.23;;
65667;SDS011;52369;52.542;13.232;2023-05-15T11:35:39;13.07;;;7.90;;
65667;SDS011;52369;52.542;13.232;2023-05-15T11:45:48;40.30;;;21.98;;
65667;SDS011;52369;52.542;13.232;2023-05-15T11:48:15;100.57;;;61.75;;
65667;SDS011;52369;52.542;13.232;2023-05-15T11:50:42;28.75;;;16.30;;
65667;SDS011;52369;52.542;13.232;2023-05-15T11:53:09;15.55;;;9.02;;
65667;SDS011;52369;52.542;13.232;2023-05-15T11:55:36;29.20;;;9.98;;
65667;SDS011;52369;52.542;13.232;2023-05-15T11:58:03;17.73;;;8.07;;
65667;SDS011;52369;52.542;13.232;2023-05-15T12:00:29;15.77;;;7.68;;
65667;SDS011;52369;52.542;13.232;2023-05-15T12:02:55;11.63;;;6.15;;
65667;SDS011;52369;52.542;13.232;2023-05-15T12:05:21;12.57;;;5.95;;
65667;SDS011;52369;52.542;13.232;2023-05-15T12:07:48;9.40;;;6.28;;
65667;SDS011;52369;52.542;13.232;2023-05-15T12:10:19;9.20;;;6.00;;
65667;SDS011;52369;52.542;13.232;2023-05-15T12:12:46;12.37;;;6.37;;
65667;SDS011;52369;52.542;13.232;2023-05-15T12:15:12;9.15;;;5.60;;
65667;SDS011;52369;52.542;13.232;2023-05-15T12:17:39;9.55;;;6.40;;
65667;SDS011;52369;52.542;13.232;2023-05-15T12:20:09;8.50;;;5.38;;
65667;SDS011;52369;52.542;13.232;2023-05-15T12:22:36;9.77;;;5.65;;
65667;SDS011;52369;52.542;13.232;2023-05-15T12:25:03;10.85;;;5.20;;
65667;SDS011;52369;52.542;13.232;2023-05-15T12:27:29;6.65;;;4.82;;
65667;SDS011;52369;52.542;13.232;2023-05-15T12:29:55;7.53;;;4.38;;
65667;SDS011;52369;52.542;13.232;2023-05-15T12:32:21;6.85;;;4.88;;
65667;SDS011;52369;52.542;13.232;2023-05-15T12:34:48;5.97;;;4.28;;
65667;SDS011;52369;52.542;13.232;2023-05-15T12:37:14;5.47;;;4.45;;
65667;SDS011;52369;52.542;13.232;2023-05-15T12:39:53;6.38;;;4.20;;
65667;SDS011;52369;52.542;13.232;2023-05-15T12:42:19;6.47;;;4.25;;
65667;SDS011;52369;52.542;13.232;2023-05-15T12:44:48;5.43;;;3.70;;
65667;SDS011;52369;52.542;13.232;2023-05-15T12:47:19;5.47;;;3.70;;
65667;SDS011;52369;52.542;13.232;2023-05-15T12:49:46;5.65;;;3.65;;
65667;SDS011;52369;52.542;13.232;2023-05-15T12:52:13;7.53;;;3.53;;
65667;SDS011;52369;52.542;13.232;2023-05-15T12:54:40;6.05;;;3.08;;
65667;SDS011;52369;52.542;13.232;2023-05-15T12:57:09;4.18;;;3.47;;
65667;SDS011;52369;52.542;13.232;2023-05-15T12:59:36;4.40;;;3.50;;
65667;SDS011;52369;52.542;13.232;2023-05-15T13:02:03;14.40;;;7.80;;
65667;SDS011;52369;52.542;13.232;2023-05-15T13:04:31;7.20;;;4.30;;
65667;SDS011;52369;52.542;13.232;2023-05-15T13:06:57;6.05;;;3.95;;
65667;SDS011;52369;52.542;13.232;2023-05-15T13:09:23;12.23;;;7.85;;
65667;SDS011;52369;52.542;13.232;2023-05-15T13:11:53;8.70;;;4.35;;
65667;SDS011;52369;52.542;13.232;2023-05-15T13:14:19;5.97;;;3.70;;
65667;SDS011;52369;52.542;13.232;2023-05-15T13:16:46;4.13;;;2.92;;
65667;SDS011;52369;52.542;13.232;2023-05-15T13:19:12;7.20;;;3.95;;
65667;SDS011;52369;52.542;13.232;2023-05-15T13:21:39;5.32;;;3.85;;
65667;SDS011;52369;52.542;13.232;2023-05-15T13:24:05;6.10;;;3.33;;
65667;SDS011;52369;52.542;13.232;2023-05-15T13:26:33;5.78;;;3.55;;
65667;SDS011;52369;52.542;13.232;2023-05-15T13:28:59;5.13;;;3.00;;
65667;SDS011;52369;52.542;13.232;2023-05-15T13:31:26;5.75;;;3.60;;
65667;SDS011;52369;52.542;13.232;2023-05-15T13:33:52;5.43;;;3.30;;
65667;SDS011;52369;52.542;13.232;2023-05-15T13:36:18;6.38;;;3.13;;
65667;SDS011;52369;52.542;13.232;2023-05-15T13:38:44;5.47;;;3.30;;
65667;SDS011;52369;52.542;13.232;2023-05-15T13:41:10;7.32;;;3.47;;
65667;SDS011;52369;52.542;13.232;2023-05-15T13:43:36;8.20;;;3.38;;
65667;SDS011;52369;52.542;13.232;2023-05-15T13:46:02;7.32;;;4.00;;
65667;SDS011;52369;52.542;13.232;2023-05-15T13:48:28;6.65;;;4.25;;
65667;SDS011;52369;52.542;13.232;2023-05-15T13:50:54;12.27;;;4.10;;
65667;SDS011;52369;52.542;13.232;2023-05-15T13:53:20;11.27;;;3.40;;
65667;SDS011;52369;52.542;13.232;2023-05-15T13:55:46;11.57;;;5.22;;
65667;SDS011;52369;52.542;13.232;2023-05-15T13:58:12;7.60;;;4.00;;
65667;SDS011;52369;52.542;13.232;2023-05-15T14:00:40;7.30;;;3.97;;
65667;SDS011;52369;52.542;13.232;2023-05-15T14:03:06;7.43;;;2.90;;
65667;SDS011;52369;52.542;13.232;2023-05-15T14:05:33;7.75;;;3.10;;
65667;SDS011;52369;52.542;13.232;2023-05-15T14:07:59;5.13;;;2.88;;
65667;SDS011;52369;52.542;13.232;2023-05-15T14:10:25;4.22;;;2.70;;
65667;SDS011;52369;52.542;13.232;2023-05-15T14:12:51;8.60;;;3.90;;
65667;SDS011;52369;52.542;13.232;2023-05-15T14:15:17;5.30;;;2.95;;
65667;SDS011;52369;52.542;13.232;2023-05-15T14:17:43;8.25;;;4.28;;
65667;SDS011;52369;52.542;13.232;2023-05-15T14:20:12;6.78;;;4.18;;
65667;SDS011;52369;52.542;13.232;2023-05-15T14:22:38;4.43;;;3.28;;
65667;SDS011;52369;52.542;13.232;2023-05-15T14:25:05;5.25;;;3.30;;
65667;SDS011;52369;52.542;13.232;2023-05-15T14:27:31;4.28;;;3.45;;
65667;SDS011;52369;52.542;13.232;2023-05-15T14:29:57;4.18;;;3.03;;
65667;SDS011;52369;52.542;13.232;2023-05-15T14:32:23;5.20;;;3.40;;
65667;SDS011;52369;52.542;13.232;2023-05-15T14:34:49;5.38;;;3.70;;
65667;SDS011;52369;52.542;13.232;2023-05-15T14:37:16;6.78;;;4.32;;
65667;SDS011;52369;52.542;13.232;2023-05-15T14:39:43;5.05;;;3.40;;
65667;SDS011;52369;52.542;13.232;2023-05-15T14:42:09;4.82;;;3.50;;
65667;SDS011;52369;52.542;13.232;2023-05-15T14:44:35;6.25;;;3.60;;
65667;SDS011;52369;52.542;13.232;2023-05-15T14:47:05;6.90;;;3.35;;
65667;SDS011;52369;52.542;13.232;2023-05-15T14:49:31;5.05;;;3.53;;